createdAt,value
2022-11-27T00:01:27.952Z,3.37
2022-11-27T00:03:56.813Z,3.57
2022-11-27T00:06:27.797Z,4.17
2022-11-27T00:09:00.144Z,4.00
2022-11-27T00:11:29.806Z,3.90
2022-11-27T00:13:57.954Z,4.10
2022-11-27T00:16:26.421Z,4.10
2022-11-27T00:18:54.348Z,3.90
2022-11-27T00:21:26.714Z,4.00
2022-11-27T00:23:55.606Z,3.70
2022-11-27T00:26:23.241Z,4.47
2022-11-27T00:28:51.168Z,4.10
2022-11-27T00:31:18.074Z,3.90
2022-11-27T00:33:46.280Z,4.63
2022-11-27T00:36:14.836Z,4.07
2022-11-27T00:38:42.846Z,5.07
2022-11-27T00:41:16.375Z,4.00
2022-11-27T00:43:45.272Z,3.77
2022-11-27T00:46:14.529Z,3.53
2022-11-27T00:48:42.689Z,3.83
2022-11-27T00:51:18.569Z,3.97
2022-11-27T00:53:46.102Z,3.83
2022-11-27T00:56:25.453Z,3.50
2022-11-27T00:58:53.621Z,3.33
2022-11-27T01:01:31.226Z,3.87
2022-11-27T01:04:00.730Z,3.43
2022-11-27T01:06:28.830Z,4.00
2022-11-27T01:08:57.245Z,3.57
2022-11-27T01:11:30.327Z,4.37
2022-11-27T01:14:02.254Z,4.37
2022-11-27T01:16:31.227Z,4.90
2022-11-27T01:19:00.743Z,4.17
2022-11-27T01:21:30.462Z,4.23
2022-11-27T01:23:57.485Z,3.93
2022-11-27T01:26:25.196Z,4.60
2022-11-27T01:28:53.556Z,4.90
2022-11-27T01:31:26.814Z,5.00
2022-11-27T01:33:56.733Z,4.57
2022-11-27T01:36:24.096Z,4.77
2022-11-27T01:38:52.009Z,4.70
2022-11-27T01:41:23.266Z,4.13
2022-11-27T01:43:56.142Z,4.20
2022-11-27T01:46:38.359Z,4.70
2022-11-27T01:49:11.547Z,4.57
2022-11-27T01:51:47.159Z,5.17
2022-11-27T01:54:16.590Z,4.77
2022-11-27T01:56:48.889Z,4.67
2022-11-27T01:59:18.557Z,4.50
2022-11-27T02:01:45.597Z,4.27
2022-11-27T02:04:13.111Z,4.63
2022-11-27T02:06:40.190Z,4.57
2022-11-27T02:09:07.536Z,4.57
2022-11-27T02:11:58.679Z,4.70
2022-11-27T02:14:35.612Z,4.60
2022-11-27T02:17:17.434Z,5.03
2022-11-27T02:20:21.869Z,4.63
2022-11-27T02:23:13.140Z,4.60
2022-11-27T02:26:02.401Z,5.03
2022-11-27T02:29:00.035Z,4.20
2022-11-27T02:31:47.764Z,4.23
2022-11-27T02:34:21.230Z,4.37
2022-11-27T02:36:56.663Z,5.30
2022-11-27T02:39:31.240Z,5.40
2022-11-27T02:42:13.179Z,5.13
2022-11-27T02:44:48.056Z,5.30
2022-11-27T02:47:16.384Z,5.87
2022-11-27T02:49:44.634Z,5.43
2022-11-27T02:52:15.814Z,5.73
2022-11-27T02:54:46.479Z,5.50
2022-11-27T02:57:14.978Z,5.97
2022-11-27T02:59:44.980Z,5.57
2022-11-27T03:02:19.390Z,5.70
2022-11-27T03:04:54.069Z,5.73
2022-11-27T03:07:35.851Z,5.90
2022-11-27T03:10:10.968Z,5.40
2022-11-27T03:12:39.126Z,5.63
2022-11-27T03:15:07.061Z,5.83
2022-11-27T03:18:27.087Z,5.27
2022-11-27T03:21:04.558Z,5.07
2022-11-27T03:23:31.563Z,5.23
2022-11-27T03:25:59.038Z,5.07
2022-11-27T03:28:28.594Z,5.27
2022-11-27T03:30:55.669Z,5.10
2022-11-27T03:33:25.200Z,5.13
2022-11-27T03:35:52.968Z,5.80
2022-11-27T03:38:20.110Z,4.90
2022-11-27T03:41:01.822Z,5.07
2022-11-27T03:43:35.700Z,5.07
2022-11-27T03:46:24.127Z,5.17
2022-11-27T03:48:58.903Z,5.13
2022-11-27T03:51:47.411Z,5.03
2022-11-27T03:54:25.427Z,5.33
2022-11-27T03:57:05.669Z,4.30
2022-11-27T03:59:40.394Z,4.73
2022-11-27T04:02:14.010Z,4.80
2022-11-27T04:04:43.727Z,5.23
2022-11-27T04:07:17.844Z,5.20
2022-11-27T04:09:44.998Z,4.83
2022-11-27T04:12:12.260Z,6.00
2022-11-27T04:14:39.460Z,4.90
2022-11-27T04:17:06.419Z,5.70
2022-11-27T04:19:33.584Z,4.97
2022-11-27T04:22:03.329Z,5.67
2022-11-27T04:24:32.250Z,5.67
2022-11-27T04:26:59.632Z,5.13
2022-11-27T04:29:26.689Z,6.33
2022-11-27T04:31:53.674Z,4.87
2022-11-27T04:34:20.919Z,5.33
2022-11-27T04:36:47.929Z,5.20
2022-11-27T04:39:15.144Z,5.07
2022-11-27T04:41:42.597Z,5.17
2022-11-27T04:44:11.131Z,4.83
2022-11-27T04:46:38.443Z,4.77
2022-11-27T04:49:05.755Z,4.50
2022-11-27T04:51:32.851Z,4.93
2022-11-27T04:54:00.028Z,5.50
2022-11-27T04:56:27.626Z,4.90
2022-11-27T04:58:54.704Z,4.50
2022-11-27T05:01:21.764Z,4.33
2022-11-27T05:03:49.359Z,4.57
2022-11-27T05:06:19.388Z,4.93
2022-11-27T05:08:46.495Z,4.50
2022-11-27T05:11:15.541Z,4.57
2022-11-27T05:13:43.271Z,4.43
2022-11-27T05:16:10.919Z,5.07
2022-11-27T05:18:38.061Z,4.70
2022-11-27T05:21:08.228Z,4.93
2022-11-27T05:23:36.068Z,4.77
2022-11-27T05:26:03.679Z,5.40
2022-11-27T05:28:31.960Z,5.17
2022-11-27T05:30:59.839Z,4.77
2022-11-27T05:33:26.979Z,4.77
2022-11-27T05:35:53.959Z,4.97
2022-11-27T05:38:21.030Z,5.10
2022-11-27T05:40:48.935Z,4.87
2022-11-27T05:43:16.156Z,5.33
2022-11-27T05:45:43.130Z,4.80
2022-11-27T05:48:10.426Z,5.13
2022-11-27T05:50:37.546Z,5.53
2022-11-27T05:53:07.599Z,5.20
2022-11-27T05:55:34.880Z,5.23
2022-11-27T05:58:01.979Z,4.37
2022-11-27T06:00:29.079Z,5.00
2022-11-27T06:02:56.695Z,4.70
2022-11-27T06:05:25.110Z,6.07
2022-11-27T06:07:52.272Z,4.87
2022-11-27T06:10:19.619Z,5.43
2022-11-27T06:12:46.728Z,5.40
2022-11-27T06:15:13.710Z,5.87
2022-11-27T06:17:41.822Z,5.50
2022-11-27T06:20:09.155Z,5.57
2022-11-27T06:22:36.295Z,5.43
2022-11-27T06:25:03.366Z,4.93
2022-11-27T06:27:34.140Z,4.47
2022-11-27T06:30:01.562Z,4.33
2022-11-27T06:32:28.559Z,4.70
2022-11-27T06:34:55.628Z,4.43
2022-11-27T06:37:23.767Z,4.47
2022-11-27T06:39:51.364Z,4.20
2022-11-27T06:42:18.338Z,4.27
2022-11-27T06:44:47.758Z,4.10
2022-11-27T06:47:14.868Z,4.33
2022-11-27T06:49:42.008Z,3.80
2022-11-27T06:52:08.949Z,3.93
2022-11-27T06:54:36.053Z,4.30
2022-11-27T06:57:04.548Z,4.17
2022-11-27T06:59:31.840Z,4.73
2022-11-27T07:01:58.890Z,4.47
2022-11-27T07:04:33.371Z,4.70
2022-11-27T07:07:00.511Z,4.50
2022-11-27T07:09:27.636Z,4.80
2022-11-27T07:11:54.947Z,5.40
2022-11-27T07:14:23.899Z,5.27
2022-11-27T07:16:51.006Z,4.87
2022-11-27T07:19:18.020Z,5.10
2022-11-27T07:21:45.138Z,4.67
2022-11-27T07:24:12.244Z,4.53
2022-11-27T07:26:39.631Z,5.27
2022-11-27T07:29:06.788Z,5.23
2022-11-27T07:31:34.077Z,4.60
2022-11-27T07:34:01.108Z,4.97
2022-11-27T07:36:30.659Z,4.93
2022-11-27T07:38:58.366Z,5.47
2022-11-27T07:41:30.594Z,5.10
2022-11-27T07:44:00.673Z,5.20
2022-11-27T07:46:27.737Z,5.23
2022-11-27T07:48:55.050Z,4.67
2022-11-27T07:51:22.918Z,4.90
2022-11-27T07:53:52.154Z,5.20
2022-11-27T07:56:19.824Z,5.67
2022-11-27T07:58:47.164Z,4.57
2022-11-27T08:01:17.304Z,4.53
2022-11-27T08:03:44.667Z,5.43
2022-11-27T08:06:19.181Z,4.50
2022-11-27T08:08:47.103Z,4.83
2022-11-27T08:11:18.145Z,4.97
2022-11-27T08:13:45.210Z,4.53
2022-11-27T08:16:12.242Z,5.40
2022-11-27T08:18:39.305Z,5.33
2022-11-27T08:21:06.426Z,4.07
2022-11-27T08:23:33.659Z,4.50
2022-11-27T08:26:05.540Z,4.80
2022-11-27T08:28:33.780Z,4.83
2022-11-27T08:31:02.279Z,5.07
2022-11-27T08:33:30.543Z,4.87
2022-11-27T08:35:57.835Z,5.07
2022-11-27T08:38:25.275Z,5.17
2022-11-27T08:41:04.114Z,5.70
2022-11-27T08:43:32.130Z,4.67
2022-11-27T08:45:59.298Z,4.97
2022-11-27T08:48:26.733Z,5.57
2022-11-27T08:50:53.517Z,5.50
2022-11-27T08:53:20.696Z,5.27
2022-11-27T08:55:48.321Z,5.03
2022-11-27T08:58:15.528Z,4.70
2022-11-27T09:00:42.593Z,5.33
2022-11-27T09:03:11.903Z,5.13
2022-11-27T09:05:43.842Z,5.27
2022-11-27T09:08:13.730Z,5.37
2022-11-27T09:10:40.884Z,5.30
2022-11-27T09:13:08.128Z,5.47
2022-11-27T09:15:35.320Z,5.00
2022-11-27T09:18:04.029Z,5.80
2022-11-27T09:20:33.592Z,5.03
2022-11-27T09:23:02.703Z,4.80
2022-11-27T09:25:30.202Z,4.90
2022-11-27T09:27:57.532Z,5.43
2022-11-27T09:30:24.777Z,5.47
2022-11-27T09:32:52.816Z,5.20
2022-11-27T09:35:20.183Z,5.30
2022-11-27T09:37:47.894Z,5.73
2022-11-27T09:40:17.772Z,5.30
2022-11-27T09:42:57.343Z,5.73
2022-11-27T09:45:27.306Z,5.27
2022-11-27T09:48:03.017Z,4.93
2022-11-27T09:50:34.601Z,5.00
2022-11-27T09:53:08.139Z,5.10
2022-11-27T09:55:41.820Z,5.90
2022-11-27T09:58:20.319Z,5.60
2022-11-27T10:00:48.250Z,5.47
2022-11-27T10:03:18.598Z,5.87
2022-11-27T10:05:55.919Z,5.43
2022-11-27T10:08:59.082Z,5.97
2022-11-27T10:11:26.185Z,5.53
2022-11-27T10:14:11.315Z,6.33
2022-11-27T10:16:51.066Z,6.20
2022-11-27T10:19:23.879Z,6.10
2022-11-27T10:22:16.596Z,7.10
2022-11-27T10:24:58.665Z,5.70
2022-11-27T10:27:36.747Z,6.33
2022-11-27T10:30:11.240Z,5.77
2022-11-27T10:32:55.283Z,5.70
2022-11-27T10:35:26.274Z,5.03
2022-11-27T10:37:58.143Z,4.77
2022-11-27T10:40:46.831Z,4.43
2022-11-27T10:43:25.948Z,5.13
2022-11-27T10:45:58.138Z,4.40
2022-11-27T10:48:25.395Z,4.40
2022-11-27T10:50:52.434Z,6.00
2022-11-27T10:53:35.782Z,5.17
2022-11-27T10:56:12.279Z,5.30
2022-11-27T10:58:51.361Z,5.10
2022-11-27T11:01:21.459Z,4.80
2022-11-27T11:03:49.187Z,4.07
2022-11-27T11:06:22.311Z,4.83
2022-11-27T11:09:09.120Z,5.17
2022-11-27T11:11:36.309Z,5.37
2022-11-27T11:14:03.357Z,5.67
2022-11-27T11:16:35.366Z,5.23
2022-11-27T11:19:03.749Z,5.40
2022-11-27T11:21:35.478Z,5.13
2022-11-27T11:24:02.494Z,5.37
2022-11-27T11:26:49.456Z,4.33
2022-11-27T11:29:28.641Z,4.03
2022-11-27T11:31:59.595Z,4.93
2022-11-27T11:34:30.309Z,4.57
2022-11-27T11:37:03.480Z,4.47
2022-11-27T11:39:52.389Z,4.70
2022-11-27T11:42:23.400Z,4.20
2022-11-27T11:44:53.559Z,4.93
2022-11-27T11:47:25.091Z,4.43
2022-11-27T11:49:54.237Z,3.90
2022-11-27T11:52:46.464Z,3.33
2022-11-27T11:55:17.933Z,3.17
2022-11-27T11:58:00.300Z,3.23
2022-11-27T12:00:58.520Z,2.97
2022-11-27T12:03:58.735Z,3.00
2022-11-27T12:07:04.484Z,2.90
2022-11-27T12:09:50.739Z,2.70
2022-11-27T12:12:39.619Z,2.80
2022-11-27T12:15:16.708Z,2.50
2022-11-27T12:18:19.407Z,2.53
2022-11-27T12:21:01.307Z,2.37
2022-11-27T12:23:43.694Z,2.00
2022-11-27T12:26:28.659Z,2.20
2022-11-27T12:29:21.788Z,2.13
2022-11-27T12:32:00.621Z,2.13
2022-11-27T12:34:39.036Z,2.47
2022-11-27T12:37:30.937Z,2.70
2022-11-27T12:40:43.065Z,2.43
2022-11-27T12:43:27.404Z,1.80
2022-11-27T12:45:54.618Z,2.10
2022-11-27T12:48:28.025Z,2.37
2022-11-27T12:51:40.755Z,2.40
2022-11-27T12:54:17.049Z,2.30
2022-11-27T12:57:09.035Z,2.00
2022-11-27T12:59:51.425Z,2.03
2022-11-27T13:02:30.280Z,2.60
2022-11-27T13:05:08.296Z,2.03
2022-11-27T13:08:10.339Z,2.03
2022-11-27T13:10:52.541Z,2.33
2022-11-27T13:13:39.107Z,2.30
2022-11-27T13:16:22.213Z,2.80
2022-11-27T13:18:55.403Z,2.63
2022-11-27T13:21:32.599Z,2.20
2022-11-27T13:24:03.829Z,2.20
2022-11-27T13:26:35.361Z,2.27
2022-11-27T13:29:13.739Z,2.43
2022-11-27T13:31:44.860Z,2.37
2022-11-27T13:34:22.160Z,2.40
2022-11-27T13:36:58.512Z,2.17
2022-11-27T13:39:33.003Z,2.00
2022-11-27T13:42:08.938Z,2.07
2022-11-27T13:44:40.910Z,2.43
2022-11-27T13:47:14.014Z,2.33
2022-11-27T13:49:43.237Z,2.27
2022-11-27T13:52:16.838Z,1.90
2022-11-27T13:55:07.762Z,1.90
2022-11-27T13:57:34.991Z,2.13
2022-11-27T14:00:10.051Z,2.67
2022-11-27T14:02:48.483Z,2.63
2022-11-27T14:05:19.212Z,3.13
2022-11-27T14:07:52.764Z,3.97
2022-11-27T14:10:24.783Z,4.30
2022-11-27T14:12:56.348Z,4.23
2022-11-27T14:15:26.751Z,4.07
2022-11-27T14:18:09.674Z,3.93
2022-11-27T14:20:58.282Z,3.80
2022-11-27T14:23:34.754Z,4.17
2022-11-27T14:26:15.351Z,4.27
2022-11-27T14:28:48.183Z,4.40
2022-11-27T14:31:43.455Z,4.57
2022-11-27T14:34:33.109Z,5.07
2022-11-27T14:37:01.339Z,5.07
2022-11-27T14:39:33.884Z,4.60
2022-11-27T14:42:02.220Z,5.37
2022-11-27T14:44:30.154Z,4.70
2022-11-27T14:47:00.960Z,5.10
2022-11-27T14:49:32.556Z,4.33
2022-11-27T14:52:07.208Z,4.97
2022-11-27T14:54:40.591Z,5.43
2022-11-27T14:57:18.597Z,4.87
2022-11-27T14:59:46.039Z,4.93
2022-11-27T15:02:17.270Z,5.27
2022-11-27T15:04:46.862Z,4.60
2022-11-27T15:07:20.946Z,4.83
2022-11-27T15:09:51.072Z,4.50
2022-11-27T15:12:22.399Z,4.60
2022-11-27T15:14:59.161Z,4.40
2022-11-27T15:17:32.141Z,4.17
2022-11-27T15:20:01.348Z,4.50
2022-11-27T15:22:28.668Z,4.70
2022-11-27T15:25:01.619Z,5.47
2022-11-27T15:27:44.391Z,4.67
2022-11-27T15:30:18.035Z,4.70
2022-11-27T15:32:55.721Z,5.17
2022-11-27T15:35:36.626Z,4.13
2022-11-27T15:38:11.395Z,4.03
2022-11-27T15:40:41.113Z,4.03
2022-11-27T15:43:17.606Z,3.90
2022-11-27T15:45:45.025Z,2.50
2022-11-27T15:48:16.592Z,3.53
2022-11-27T15:50:48.314Z,4.03
2022-11-27T15:53:19.431Z,3.83
2022-11-27T15:55:47.034Z,3.40
2022-11-27T15:58:14.391Z,3.70
2022-11-27T16:00:41.855Z,3.23
2022-11-27T16:03:09.432Z,3.00
2022-11-27T16:05:36.982Z,2.53
2022-11-27T16:08:05.811Z,2.33
2022-11-27T16:10:33.989Z,2.47
2022-11-27T16:13:01.461Z,2.20
2022-11-27T16:15:32.792Z,2.23
2022-11-27T16:18:01.260Z,2.07
2022-11-27T16:20:28.622Z,2.20
2022-11-27T16:22:56.114Z,1.90
2022-11-27T16:25:25.701Z,2.07
2022-11-27T16:27:56.682Z,2.20
2022-11-27T16:30:26.827Z,1.73
2022-11-27T16:32:54.289Z,2.00
2022-11-27T16:35:22.823Z,2.13
2022-11-27T16:37:50.623Z,2.00
2022-11-27T16:40:19.862Z,2.30
2022-11-27T16:42:47.870Z,2.30
2022-11-27T16:45:15.710Z,2.00
2022-11-27T16:47:43.110Z,2.20
2022-11-27T16:50:10.949Z,2.40
2022-11-27T16:52:38.464Z,2.17
2022-11-27T16:55:06.761Z,2.87
2022-11-27T16:57:34.564Z,3.40
2022-11-27T17:00:02.535Z,2.23
2022-11-27T17:02:30.035Z,2.33
2022-11-27T17:04:57.878Z,2.50
2022-11-27T17:07:25.276Z,2.50
2022-11-27T17:09:52.764Z,2.10
2022-11-27T17:12:20.449Z,2.20
2022-11-27T17:14:48.089Z,2.80
2022-11-27T17:17:15.727Z,3.37
2022-11-27T17:19:43.373Z,3.60
2022-11-27T17:22:11.086Z,3.63
2022-11-27T17:24:38.571Z,3.90
2022-11-27T17:27:07.646Z,3.73
2022-11-27T17:29:36.447Z,3.70
2022-11-27T17:32:04.916Z,3.93
2022-11-27T17:34:33.131Z,3.93
2022-11-27T17:37:03.321Z,4.03
2022-11-27T17:39:30.772Z,3.80
2022-11-27T17:41:58.608Z,4.20
2022-11-27T17:44:26.146Z,3.57
2022-11-27T17:46:53.727Z,4.20
2022-11-27T17:49:22.298Z,3.67
2022-11-27T17:51:51.048Z,3.63
2022-11-27T17:54:19.406Z,3.77
2022-11-27T17:56:51.658Z,3.70
2022-11-27T17:59:19.934Z,3.43
2022-11-27T18:01:53.218Z,3.57
2022-11-27T18:04:21.243Z,3.00
2022-11-27T18:06:51.428Z,3.13
2022-11-27T18:09:20.696Z,3.03
2022-11-27T18:11:48.527Z,2.73
2022-11-27T18:14:15.980Z,3.03
2022-11-27T18:16:43.413Z,3.13
2022-11-27T18:19:12.049Z,3.30
2022-11-27T18:21:40.562Z,2.93
2022-11-27T18:24:22.943Z,2.63
2022-11-27T18:27:07.806Z,2.93
2022-11-27T18:29:40.205Z,2.80
2022-11-27T18:32:08.684Z,2.60
2022-11-27T18:34:36.443Z,2.93
2022-11-27T18:37:05.211Z,2.83
2022-11-27T18:39:33.570Z,2.87
2022-11-27T18:42:01.676Z,2.50
2022-11-27T18:44:29.322Z,2.60
2022-11-27T18:46:56.956Z,2.53
2022-11-27T18:49:24.655Z,2.70
2022-11-27T18:51:54.322Z,2.67
2022-11-27T18:54:22.226Z,2.60
2022-11-27T18:56:50.842Z,2.43
2022-11-27T18:59:18.855Z,2.80
2022-11-27T19:01:46.338Z,2.30
2022-11-27T19:04:15.282Z,1.80
2022-11-27T19:06:43.482Z,2.23
2022-11-27T19:09:12.481Z,2.37
2022-11-27T19:11:41.701Z,2.20
2022-11-27T19:14:10.101Z,2.13
2022-11-27T19:16:46.651Z,2.40
2022-11-27T19:19:54.026Z,2.63
2022-11-27T19:22:08.282Z,2.63
2022-11-27T19:24:36.049Z,2.27
2022-11-27T19:27:03.899Z,2.33
2022-11-27T19:29:31.597Z,2.63
2022-11-27T19:32:01.561Z,2.17
2022-11-27T19:34:30.003Z,2.27
2022-11-27T19:36:58.597Z,2.17
2022-11-27T19:39:27.534Z,2.40
2022-11-27T19:41:55.446Z,2.43
2022-11-27T19:44:24.294Z,2.20
2022-11-27T19:46:52.323Z,2.13
2022-11-27T19:49:20.076Z,2.40
2022-11-27T19:51:48.117Z,1.87
2022-11-27T19:54:17.165Z,1.77
2022-11-27T19:56:44.796Z,1.53
2022-11-27T19:59:13.223Z,1.73
2022-11-27T20:01:42.805Z,1.73
2022-11-27T20:04:12.419Z,1.77
2022-11-27T20:06:41.482Z,2.33
2022-11-27T20:09:09.218Z,1.90
2022-11-27T20:11:37.648Z,1.90
2022-11-27T20:14:06.518Z,2.10
2022-11-27T20:16:35.362Z,2.20
2022-11-27T20:19:06.303Z,1.90
2022-11-27T20:21:36.868Z,1.67
2022-11-27T20:24:07.323Z,1.70
2022-11-27T20:26:42.457Z,1.60
2022-11-27T20:29:12.024Z,1.67
2022-11-27T20:31:42.222Z,1.70
2022-11-27T20:34:20.255Z,1.57
2022-11-27T20:36:48.126Z,1.83
2022-11-27T20:39:20.818Z,1.57
2022-11-27T20:41:51.904Z,1.83
2022-11-27T20:44:19.729Z,2.13
2022-11-27T20:46:47.172Z,1.90
2022-11-27T20:49:16.427Z,2.20
2022-11-27T20:51:44.545Z,1.50
2022-11-27T20:54:12.828Z,1.80
2022-11-27T20:56:43.336Z,1.50
2022-11-27T20:59:11.154Z,1.77
2022-11-27T21:01:39.533Z,1.87
2022-11-27T21:04:24.033Z,1.73
2022-11-27T21:06:53.141Z,1.97
2022-11-27T21:09:21.441Z,2.20
2022-11-27T21:11:48.944Z,2.20
2022-11-27T21:14:17.365Z,2.50
2022-11-27T21:16:50.232Z,2.27
2022-11-27T21:19:25.506Z,2.13
2022-11-27T21:21:55.705Z,2.07
2022-11-27T21:24:25.657Z,2.47
2022-11-27T21:26:52.971Z,2.20
2022-11-27T21:29:25.693Z,2.20
2022-11-27T21:31:55.503Z,2.20
2022-11-27T21:34:24.309Z,2.20
2022-11-27T21:36:51.540Z,2.00
2022-11-27T21:39:21.892Z,2.10
2022-11-27T21:41:51.454Z,2.00
2022-11-27T21:44:20.353Z,1.83
2022-11-27T21:47:20.290Z,2.00
2022-11-27T21:49:49.964Z,1.70
2022-11-27T21:52:18.333Z,1.83
2022-11-27T21:54:45.636Z,1.80
2022-11-27T21:57:14.444Z,2.17
2022-11-27T21:59:43.368Z,2.00
2022-11-27T22:02:12.321Z,2.10
2022-11-27T22:04:39.639Z,2.10
2022-11-27T22:07:08.044Z,1.97
2022-11-27T22:09:35.273Z,2.03
2022-11-27T22:12:02.407Z,2.27
2022-11-27T22:14:29.685Z,2.33
2022-11-27T22:16:57.252Z,2.67
2022-11-27T22:19:25.534Z,2.90
2022-11-27T22:21:52.934Z,2.70
2022-11-27T22:24:20.344Z,2.63
2022-11-27T22:26:51.741Z,2.13
2022-11-27T22:29:18.915Z,2.07
2022-11-27T22:31:46.835Z,1.60
2022-11-27T22:34:16.480Z,1.90
2022-11-27T22:36:44.241Z,2.30
2022-11-27T22:39:11.813Z,2.03
2022-11-27T22:41:40.459Z,2.40
2022-11-27T22:44:16.650Z,2.70
2022-11-27T22:46:44.625Z,2.70
2022-11-27T22:49:17.596Z,2.57
2022-11-27T22:51:45.829Z,2.30
2022-11-27T22:54:17.401Z,2.20
2022-11-27T22:56:46.013Z,1.70
2022-11-27T23:02:02.789Z,2.10
2022-11-27T23:04:30.878Z,2.00
2022-11-27T23:06:58.426Z,2.10
2022-11-27T23:09:25.720Z,2.60
2022-11-27T23:11:52.964Z,2.57
2022-11-27T23:14:20.263Z,2.53
2022-11-27T23:16:47.354Z,2.80
2022-11-27T23:19:15.615Z,2.40
2022-11-27T23:21:42.621Z,2.40
2022-11-27T23:24:13.754Z,2.83
2022-11-27T23:26:42.018Z,2.50
2022-11-27T23:29:09.904Z,2.60
2022-11-27T23:31:37.317Z,2.67
2022-11-27T23:34:08.279Z,2.70
2022-11-27T23:36:36.049Z,2.33
2022-11-27T23:39:06.007Z,2.17
2022-11-27T23:41:33.778Z,2.17
2022-11-27T23:44:02.241Z,2.13
2022-11-27T23:46:30.706Z,1.90
2022-11-27T23:49:00.264Z,1.80
2022-11-27T23:51:33.503Z,1.73
2022-11-27T23:54:01.411Z,1.97
2022-11-27T23:56:32.103Z,2.00
2022-11-27T23:58:59.986Z,1.83
